METAR Data
IDs: Format: Raw Decoded Include TAF

Data at: 1216 UTC 17 Sep 2019

METAR for:TJBQ (Aquadilla/Hernandez, --, PR)
Text:TJBQ 171150Z 11004KT 7SM HZ CLR 26/24 A2993
Temperature: 26.0°C ( 79°F)
Dewpoint: 24.0°C ( 75°F) [RH = 89%]
Pressure (altimeter):29.93 inches Hg (1013.6 mb)
Winds:from the ESE (110 degrees) at 5 MPH (4 knots; 2.1 m/s)
Visibility: 7 sm ( 11 km)
Ceiling:at least 12,000 feet AGL
Clouds:sky clear below 12,000 feet AGL
Weather:HZ (haze)